createdAt,value
2022-11-20T00:01:51.687Z,22.23
2022-11-20T00:04:20.518Z,24.30
2022-11-20T00:06:49.611Z,19.53
2022-11-20T00:09:20.614Z,20.60
2022-11-20T00:11:49.378Z,25.97
2022-11-20T00:14:18.098Z,21.37
2022-11-20T00:16:47.344Z,21.90
2022-11-20T00:19:19.035Z,23.43
2022-11-20T00:21:48.634Z,23.70
2022-11-20T00:24:17.181Z,19.20
2022-11-20T00:26:47.273Z,20.80
2022-11-20T00:29:16.120Z,23.63
2022-11-20T00:31:45.217Z,22.23
2022-11-20T00:34:14.045Z,24.13
2022-11-20T00:36:43.232Z,20.10
2022-11-20T00:39:12.227Z,19.17
2022-11-20T00:41:40.800Z,20.40
2022-11-20T00:44:11.018Z,20.57
2022-11-20T00:46:40.025Z,21.30
2022-11-20T00:49:08.783Z,19.80
2022-11-20T00:51:38.119Z,23.03
2022-11-20T00:54:06.688Z,20.47
2022-11-20T00:56:36.055Z,21.50
2022-11-20T00:59:05.178Z,21.37
2022-11-20T01:01:35.727Z,21.20
2022-11-20T01:04:05.335Z,20.37
2022-11-20T01:06:35.623Z,21.93
2022-11-20T01:09:07.670Z,22.00
2022-11-20T01:11:38.674Z,25.23
2022-11-20T01:14:11.970Z,23.60
2022-11-20T01:16:44.209Z,22.13
2022-11-20T01:19:18.230Z,24.40
2022-11-20T01:21:49.864Z,20.77
2022-11-20T01:24:21.104Z,23.60
2022-11-20T01:26:51.433Z,22.03
2022-11-20T01:29:24.300Z,26.30
2022-11-20T01:31:55.597Z,23.43
2022-11-20T01:34:25.226Z,21.10
2022-11-20T01:36:55.220Z,24.97
2022-11-20T01:39:26.115Z,31.23
2022-11-20T01:42:14.088Z,21.40
2022-11-20T01:44:52.211Z,24.93
2022-11-20T01:47:34.376Z,22.13
2022-11-20T01:50:08.561Z,25.97
2022-11-20T01:52:45.133Z,31.10
2022-11-20T01:55:17.848Z,23.70
2022-11-20T01:57:48.043Z,24.20
2022-11-20T02:00:20.943Z,22.53
2022-11-20T02:02:56.165Z,26.60
2022-11-20T02:05:29.817Z,23.80
2022-11-20T02:08:00.223Z,22.93
2022-11-20T02:10:30.520Z,22.90
2022-11-20T02:13:16.817Z,23.40
2022-11-20T02:15:46.266Z,22.83
2022-11-20T02:18:17.981Z,28.17
2022-11-20T02:20:48.286Z,23.40
2022-11-20T02:23:25.281Z,27.23
2022-11-20T02:25:56.329Z,25.53
2022-11-20T02:28:25.656Z,25.10
2022-11-20T02:30:54.254Z,29.70
2022-11-20T02:33:23.207Z,27.07
2022-11-20T02:35:52.764Z,26.53
2022-11-20T02:38:22.472Z,28.10
2022-11-20T02:40:55.295Z,28.60
2022-11-20T02:43:26.105Z,28.37
2022-11-20T02:45:55.102Z,29.17
2022-11-20T02:48:25.238Z,26.23
2022-11-20T02:50:53.987Z,31.70
2022-11-20T02:53:22.586Z,29.10
2022-11-20T02:55:52.933Z,25.70
2022-11-20T02:58:21.719Z,33.37
2022-11-20T03:00:51.956Z,29.37
2022-11-20T03:03:20.417Z,36.93
2022-11-20T03:05:48.817Z,33.73
2022-11-20T03:08:17.457Z,25.83
2022-11-20T03:10:46.241Z,29.57
2022-11-20T03:13:15.158Z,29.63
2022-11-20T03:15:43.934Z,24.00
2022-11-20T03:18:15.465Z,26.90
2022-11-20T03:20:44.052Z,25.53
2022-11-20T03:23:13.352Z,27.90
2022-11-20T03:25:41.877Z,29.87
2022-11-20T03:28:10.556Z,26.77
2022-11-20T03:30:39.413Z,28.07
2022-11-20T03:33:08.041Z,28.77
2022-11-20T03:35:38.526Z,28.70
2022-11-20T03:38:07.508Z,27.30
2022-11-20T03:40:37.865Z,25.20
2022-11-20T03:43:07.232Z,23.77
2022-11-20T03:45:35.994Z,25.73
2022-11-20T03:48:04.811Z,24.83
2022-11-20T03:50:33.452Z,24.87
2022-11-20T03:53:03.511Z,26.30
2022-11-20T03:55:32.467Z,23.87
2022-11-20T03:58:01.646Z,26.23
2022-11-20T04:00:31.749Z,21.97
2022-11-20T04:03:01.072Z,24.63
2022-11-20T04:05:30.011Z,29.37
2022-11-20T04:07:58.537Z,25.90
2022-11-20T04:10:28.364Z,24.50
2022-11-20T04:13:00.192Z,25.03
2022-11-20T04:15:30.769Z,24.60
2022-11-20T04:18:01.361Z,23.77
2022-11-20T04:20:33.189Z,22.07
2022-11-20T04:23:01.907Z,21.17
2022-11-20T04:25:32.017Z,23.43
2022-11-20T04:28:00.686Z,23.30
2022-11-20T04:30:28.990Z,28.73
2022-11-20T04:32:58.151Z,22.73
2022-11-20T04:35:26.751Z,23.13
2022-11-20T04:37:55.672Z,23.47
2022-11-20T04:40:24.430Z,28.03
2022-11-20T04:42:55.058Z,22.57
2022-11-20T04:45:25.466Z,25.43
2022-11-20T04:47:54.034Z,25.30
2022-11-20T04:50:23.474Z,23.87
2022-11-20T04:52:52.233Z,24.37
2022-11-20T04:55:21.052Z,19.57
2022-11-20T04:57:52.649Z,23.00
2022-11-20T05:00:23.851Z,22.63
2022-11-20T05:02:53.288Z,22.67
2022-11-20T05:05:21.829Z,28.00
2022-11-20T05:07:50.332Z,26.60
2022-11-20T05:10:20.407Z,23.33
2022-11-20T05:12:51.440Z,24.53
2022-11-20T05:15:24.321Z,25.10
2022-11-20T05:17:54.382Z,23.87
2022-11-20T05:20:23.503Z,23.23
2022-11-20T05:22:52.899Z,25.83
2022-11-20T05:25:21.339Z,26.23
2022-11-20T05:27:50.385Z,25.07
2022-11-20T05:30:19.229Z,22.37
2022-11-20T05:32:49.102Z,23.17
2022-11-20T05:35:19.753Z,28.50
2022-11-20T05:37:48.364Z,24.47
2022-11-20T05:40:17.046Z,22.03
2022-11-20T05:42:47.713Z,24.77
2022-11-20T05:45:16.876Z,21.20
2022-11-20T05:47:45.390Z,27.60
2022-11-20T05:50:17.421Z,24.27
2022-11-20T05:52:45.999Z,25.30
2022-11-20T05:55:14.484Z,24.67
2022-11-20T05:57:43.372Z,24.50
2022-11-20T06:00:13.903Z,24.33
2022-11-20T06:02:42.944Z,23.77
2022-11-20T06:05:11.507Z,22.97
2022-11-20T06:07:41.628Z,24.80
2022-11-20T06:10:11.306Z,24.13
2022-11-20T06:12:40.326Z,21.13
2022-11-20T06:15:10.395Z,24.27
2022-11-20T06:17:40.049Z,25.50
2022-11-20T06:20:10.207Z,21.47
2022-11-20T06:22:39.105Z,24.67
2022-11-20T06:25:10.182Z,27.63
2022-11-20T06:27:39.229Z,24.80
2022-11-20T06:30:09.089Z,27.83
2022-11-20T06:32:38.480Z,20.67
2022-11-20T06:35:08.165Z,28.20
2022-11-20T06:37:36.855Z,21.40
2022-11-20T06:40:06.710Z,22.40
2022-11-20T06:42:37.341Z,23.17
2022-11-20T06:45:06.371Z,23.70
2022-11-20T06:47:35.275Z,20.97
2022-11-20T06:50:04.150Z,23.40
2022-11-20T06:52:32.941Z,25.67
2022-11-20T06:55:02.103Z,27.20
2022-11-20T06:57:31.984Z,24.73
2022-11-20T07:00:02.251Z,27.60
2022-11-20T07:02:32.503Z,25.07
2022-11-20T07:05:01.114Z,28.90
2022-11-20T07:07:30.116Z,26.10
2022-11-20T07:09:58.812Z,23.23
2022-11-20T07:12:27.985Z,27.20
2022-11-20T07:14:56.821Z,26.30
2022-11-20T07:17:27.095Z,26.00
2022-11-20T07:19:56.818Z,27.43
2022-11-20T07:22:25.601Z,25.70
2022-11-20T07:24:54.832Z,24.97
2022-11-20T07:27:25.078Z,27.20
2022-11-20T07:30:02.050Z,22.87
2022-11-20T07:32:35.486Z,22.50
2022-11-20T07:35:05.371Z,25.57
2022-11-20T07:37:37.086Z,25.37
2022-11-20T07:40:07.357Z,23.77
2022-11-20T07:42:36.339Z,29.27
2022-11-20T07:45:05.873Z,24.70
2022-11-20T07:47:39.115Z,25.07
2022-11-20T07:50:09.028Z,25.70
2022-11-20T07:52:37.684Z,25.23
2022-11-20T07:55:07.455Z,27.03
2022-11-20T07:57:36.341Z,23.83
2022-11-20T08:00:06.811Z,27.10
2022-11-20T08:02:42.839Z,25.17
2022-11-20T08:05:12.452Z,26.37
2022-11-20T08:07:41.975Z,26.97
2022-11-20T08:10:13.106Z,24.50
2022-11-20T08:13:04.557Z,24.77
2022-11-20T08:15:34.376Z,23.43
2022-11-20T08:18:29.876Z,26.20
2022-11-20T08:20:56.674Z,30.87
2022-11-20T08:23:25.732Z,30.17
2022-11-20T08:25:54.453Z,27.10
2022-11-20T08:28:23.445Z,25.03
2022-11-20T08:30:52.573Z,25.63
2022-11-20T08:33:22.649Z,28.57
2022-11-20T08:35:51.248Z,27.00
2022-11-20T08:38:20.426Z,31.03
2022-11-20T08:41:09.322Z,30.17
2022-11-20T08:43:39.817Z,26.73
2022-11-20T08:46:08.411Z,28.00
2022-11-20T08:48:38.595Z,29.77
2022-11-20T08:51:07.614Z,27.77
2022-11-20T08:53:36.601Z,28.87
2022-11-20T08:56:05.651Z,31.07
2022-11-20T08:58:54.893Z,29.10
2022-11-20T09:01:25.567Z,28.20
2022-11-20T09:03:58.502Z,29.40
2022-11-20T09:06:27.429Z,29.27
2022-11-20T09:08:57.383Z,28.60
2022-11-20T09:11:28.479Z,30.20
2022-11-20T09:13:57.128Z,27.23
2022-11-20T09:16:26.325Z,28.33
2022-11-20T09:19:28.092Z,29.13
2022-11-20T09:21:46.791Z,29.27
2022-11-20T09:24:15.761Z,28.57
2022-11-20T09:26:44.498Z,27.07
2022-11-20T09:29:13.137Z,31.27
2022-11-20T09:31:41.990Z,32.10
2022-11-20T09:34:16.654Z,34.90
2022-11-20T09:36:45.255Z,35.10
2022-11-20T09:39:13.881Z,34.90
2022-11-20T09:41:58.048Z,34.37
2022-11-20T09:44:41.142Z,32.83
2022-11-20T09:47:17.297Z,29.63
2022-11-20T09:50:05.303Z,31.83
2022-11-20T09:52:42.522Z,36.17
2022-11-20T09:55:14.766Z,41.87
2022-11-20T09:57:50.895Z,37.67
2022-11-20T10:00:22.701Z,58.57
2022-11-20T10:02:58.114Z,69.83
2022-11-20T10:05:33.973Z,74.73
2022-11-20T10:08:15.059Z,74.73
2022-11-20T10:10:52.488Z,71.17
2022-11-20T10:13:42.532Z,83.90
2022-11-20T10:16:22.586Z,78.37
2022-11-20T10:19:05.033Z,100.07
2022-11-20T10:21:49.690Z,92.93
2022-11-20T10:24:48.929Z,99.83
2022-11-20T10:27:33.482Z,105.30
2022-11-20T10:30:06.051Z,97.87
2022-11-20T10:32:39.919Z,111.03
2022-11-20T10:35:25.453Z,113.13
2022-11-20T10:38:00.413Z,113.23
2022-11-20T10:40:37.259Z,113.37
2022-11-20T10:43:13.658Z,101.87
2022-11-20T10:45:52.110Z,95.43
2022-11-20T10:48:24.852Z,95.80
2022-11-20T10:51:15.382Z,104.27
2022-11-20T10:53:56.340Z,108.40
2022-11-20T10:56:33.623Z,105.80
2022-11-20T10:59:27.793Z,105.23
2022-11-20T11:01:57.023Z,95.37
2022-11-20T11:04:41.851Z,95.20
2022-11-20T11:07:18.415Z,100.73
2022-11-20T11:09:51.658Z,89.83
2022-11-20T11:12:22.019Z,97.33
2022-11-20T11:14:53.066Z,87.03
2022-11-20T11:17:29.850Z,90.97
2022-11-20T11:20:03.493Z,91.73
2022-11-20T11:22:34.456Z,99.03
2022-11-20T11:25:14.492Z,82.17
2022-11-20T11:27:48.911Z,81.63
2022-11-20T11:30:19.924Z,87.40
2022-11-20T11:32:48.896Z,93.20
2022-11-20T11:35:27.725Z,86.27
2022-11-20T11:38:04.727Z,84.23
2022-11-20T11:40:37.563Z,85.03
2022-11-20T11:43:33.884Z,78.43
2022-11-20T11:46:10.478Z,78.03
2022-11-20T11:48:39.064Z,73.53
2022-11-20T11:51:10.970Z,68.03
2022-11-20T11:53:44.614Z,67.43
2022-11-20T11:56:17.280Z,63.27
2022-11-20T11:58:50.803Z,63.77
2022-11-20T12:01:30.681Z,57.40
2022-11-20T12:04:07.067Z,65.17
2022-11-20T12:06:39.127Z,54.43
2022-11-20T12:09:12.897Z,54.10
2022-11-20T12:11:49.191Z,54.90
2022-11-20T12:14:25.029Z,57.03
2022-11-20T12:16:56.917Z,49.80
2022-11-20T12:19:26.556Z,48.10
2022-11-20T12:22:05.266Z,50.50
2022-11-20T12:24:56.014Z,39.27
2022-11-20T12:27:58.204Z,47.53
2022-11-20T12:30:27.682Z,41.40
2022-11-20T12:33:19.709Z,46.70
2022-11-20T12:36:09.054Z,48.17
2022-11-20T12:38:51.991Z,46.50
2022-11-20T12:41:56.140Z,47.30
2022-11-20T12:45:13.317Z,44.13
2022-11-20T12:48:01.552Z,44.87
2022-11-20T12:51:00.297Z,44.80
2022-11-20T12:53:36.212Z,40.53
2022-11-20T12:56:14.738Z,47.93
2022-11-20T12:58:54.202Z,42.10
2022-11-20T13:01:43.913Z,44.07
2022-11-20T13:04:30.082Z,40.53
2022-11-20T13:07:00.450Z,47.33
2022-11-20T13:09:29.996Z,50.97
2022-11-20T13:12:06.642Z,48.30
2022-11-20T13:14:40.866Z,50.03
2022-11-20T13:17:19.166Z,49.60
2022-11-20T13:19:53.488Z,49.10
2022-11-20T13:22:27.971Z,50.17
2022-11-20T13:25:04.970Z,49.63
2022-11-20T13:27:35.023Z,50.83
2022-11-20T13:30:18.354Z,50.20
2022-11-20T13:33:01.337Z,51.67
2022-11-20T13:35:34.254Z,59.97
2022-11-20T13:38:09.162Z,52.70
2022-11-20T13:40:40.450Z,57.07
2022-11-20T13:43:25.204Z,52.60
2022-11-20T13:46:01.560Z,55.73
2022-11-20T13:48:35.783Z,53.00
2022-11-20T13:51:26.950Z,52.17
2022-11-20T13:54:14.399Z,54.03
2022-11-20T13:56:57.714Z,56.87
2022-11-20T13:59:43.189Z,51.57
2022-11-20T14:02:15.346Z,53.33
2022-11-20T14:04:50.523Z,55.87
2022-11-20T14:07:22.074Z,56.30
2022-11-20T14:09:55.672Z,56.23
2022-11-20T14:12:26.613Z,52.10
2022-11-20T14:14:56.800Z,49.73
2022-11-20T14:17:33.753Z,49.70
2022-11-20T14:20:06.894Z,55.40
2022-11-20T14:22:36.110Z,50.20
2022-11-20T14:25:09.061Z,52.27
2022-11-20T14:27:41.069Z,51.90
2022-11-20T14:30:17.185Z,50.47
2022-11-20T14:32:47.663Z,48.80
2022-11-20T14:35:22.896Z,50.20
2022-11-20T14:37:51.734Z,49.20
2022-11-20T14:40:31.830Z,52.97
2022-11-20T14:43:02.190Z,42.83
2022-11-20T14:45:31.266Z,51.93
2022-11-20T14:48:02.654Z,53.83
2022-11-20T14:50:34.414Z,49.10
2022-11-20T14:53:03.631Z,53.13
2022-11-20T14:55:34.486Z,53.83
2022-11-20T14:58:05.182Z,53.70
2022-11-20T15:00:36.715Z,49.37
2022-11-20T15:03:17.343Z,53.13
2022-11-20T15:05:52.723Z,58.43
2022-11-20T15:08:21.346Z,51.53
2022-11-20T15:10:52.875Z,57.90
2022-11-20T15:13:28.772Z,56.60
2022-11-20T15:15:59.095Z,57.03
2022-11-20T15:18:32.289Z,62.17
2022-11-20T15:21:06.243Z,61.47
2022-11-20T15:23:35.329Z,62.03
2022-11-20T15:26:04.265Z,56.30
2022-11-20T15:28:35.667Z,57.27
2022-11-20T15:31:06.142Z,61.90
2022-11-20T15:33:36.130Z,55.93
2022-11-20T15:36:06.857Z,63.97
2022-11-20T15:38:35.341Z,66.97
2022-11-20T15:41:04.630Z,59.43
2022-11-20T15:43:34.280Z,61.03
2022-11-20T15:46:06.252Z,66.93
2022-11-20T15:48:44.774Z,64.43
2022-11-20T15:51:32.767Z,68.53
2022-11-20T15:54:12.026Z,69.73
2022-11-20T15:56:41.019Z,68.03
2022-11-20T15:59:10.200Z,67.73
2022-11-20T16:01:40.128Z,78.33
2022-11-20T16:04:12.685Z,77.57
2022-11-20T16:06:43.751Z,72.23
2022-11-20T16:09:14.788Z,72.30
2022-11-20T16:11:44.049Z,81.83
2022-11-20T16:14:31.235Z,69.50
2022-11-20T16:17:02.650Z,74.60
2022-11-20T16:19:32.118Z,78.73
2022-11-20T16:22:04.045Z,79.03
2022-11-20T16:24:38.440Z,74.40
2022-11-20T16:27:24.660Z,73.87
2022-11-20T16:30:01.328Z,66.00
2022-11-20T16:32:34.431Z,73.57
2022-11-20T16:38:45.527Z,76.80
2022-11-20T16:42:01.986Z,89.63
2022-11-20T16:45:10.078Z,78.73
2022-11-20T16:48:18.726Z,78.60
2022-11-20T16:51:26.517Z,71.67
2022-11-20T18:37:14.027Z,22.27
2022-11-20T18:40:10.047Z,29.53
2022-11-20T18:43:02.788Z,26.20
2022-11-20T18:45:33.346Z,21.07
2022-11-20T18:48:03.321Z,27.47
2022-11-20T18:50:40.416Z,25.63
2022-11-20T18:57:00.948Z,23.70
2022-11-20T19:03:52.795Z,22.23
2022-11-20T19:07:00.312Z,23.10
2022-11-20T19:09:32.677Z,18.10
2022-11-20T19:12:04.124Z,18.87
2022-11-20T19:14:38.800Z,28.73
2022-11-20T19:17:11.271Z,27.43
2022-11-20T19:19:43.709Z,25.00
2022-11-20T19:22:21.260Z,22.30
2022-11-20T19:25:03.233Z,17.47
2022-11-20T19:27:53.404Z,21.77
2022-11-20T19:30:23.979Z,18.83
2022-11-20T19:32:55.781Z,23.00
2022-11-20T19:35:42.534Z,22.37
2022-11-20T19:38:22.568Z,20.10
2022-11-20T19:41:03.535Z,20.70
2022-11-20T19:43:47.757Z,19.17
2022-11-20T19:46:22.511Z,24.53
2022-11-20T19:49:01.875Z,19.80
2022-11-20T19:51:52.088Z,19.70
2022-11-20T19:54:30.908Z,17.23
2022-11-20T19:57:07.471Z,22.93
2022-11-20T19:59:44.140Z,21.13
2022-11-20T20:02:15.209Z,26.63
2022-11-20T20:04:47.337Z,25.30
2022-11-20T20:07:20.145Z,24.07
2022-11-20T20:09:54.994Z,23.73
2022-11-20T20:12:24.191Z,20.80
2022-11-20T20:14:54.857Z,28.00
2022-11-20T20:17:23.952Z,30.97
2022-11-20T20:19:55.408Z,23.63
2022-11-20T20:22:26.045Z,27.57
2022-11-20T20:24:57.413Z,28.57
2022-11-20T20:27:27.310Z,20.67
2022-11-20T20:29:56.443Z,23.30
2022-11-20T20:32:27.316Z,25.50
2022-11-20T20:34:56.561Z,23.63
2022-11-20T20:37:26.145Z,21.97
2022-11-20T20:39:56.577Z,27.90
2022-11-20T20:42:26.566Z,26.23
2022-11-20T20:45:11.490Z,28.47
2022-11-20T20:47:42.711Z,22.40
2022-11-20T20:50:14.266Z,30.50
2022-11-20T20:52:45.772Z,24.37
2022-11-20T20:55:16.687Z,26.13
2022-11-20T20:57:45.932Z,26.33
2022-11-20T21:00:15.371Z,28.10
2022-11-20T21:02:44.591Z,33.47
2022-11-20T21:05:13.227Z,30.57
2022-11-20T21:08:02.336Z,26.77
2022-11-20T21:10:34.802Z,28.93
2022-11-20T21:13:04.333Z,29.30
2022-11-20T21:15:33.119Z,35.77
2022-11-20T21:18:01.690Z,22.47
2022-11-20T21:20:48.137Z,23.00
2022-11-20T21:23:17.044Z,30.43
2022-11-20T21:25:47.614Z,31.73
2022-11-20T21:28:18.394Z,38.27
2022-11-20T21:30:48.008Z,38.03
2022-11-20T21:33:17.467Z,36.70
2022-11-20T21:35:47.013Z,37.30
2022-11-20T21:38:16.863Z,33.70
2022-11-20T21:40:47.272Z,29.97
2022-11-20T21:43:16.626Z,30.67
2022-11-20T21:45:45.460Z,28.37
2022-11-20T21:48:14.544Z,30.93
2022-11-20T21:50:43.680Z,38.33
2022-11-20T21:53:12.455Z,34.03
2022-11-20T21:55:41.528Z,32.57
2022-11-20T21:58:12.082Z,35.10
2022-11-20T22:00:41.632Z,35.80
2022-11-20T22:03:10.616Z,36.47
2022-11-20T22:05:39.457Z,34.60
2022-11-20T22:08:08.603Z,36.23
2022-11-20T22:10:38.058Z,37.17
2022-11-20T22:13:32.768Z,38.47
2022-11-20T22:16:05.282Z,33.63
2022-11-20T22:18:34.532Z,39.47
2022-11-20T22:21:07.718Z,28.50
2022-11-20T22:23:37.118Z,32.07
2022-11-20T22:26:07.474Z,33.20
2022-11-20T22:28:37.208Z,26.83
2022-11-20T22:31:10.935Z,30.27
2022-11-20T22:33:44.106Z,23.63
2022-11-20T22:36:15.278Z,25.47
2022-11-20T22:38:49.634Z,25.37
2022-11-20T22:41:19.697Z,33.10
2022-11-20T22:43:49.507Z,33.87
2022-11-20T22:46:21.750Z,35.87
2022-11-20T22:48:52.355Z,28.67
2022-11-20T22:51:22.740Z,32.70
2022-11-20T22:53:53.417Z,27.00
2022-11-20T22:56:23.362Z,31.73
2022-11-20T22:58:53.938Z,32.33
2022-11-20T23:01:26.261Z,29.83
2022-11-20T23:03:57.946Z,22.03
2022-11-20T23:06:27.830Z,49.43
2022-11-20T23:08:57.098Z,59.43
2022-11-20T23:11:27.996Z,49.17
2022-11-20T23:13:59.110Z,55.93
2022-11-20T23:16:31.384Z,60.53
2022-11-20T23:19:01.784Z,38.53
2022-11-20T23:21:30.451Z,46.13
2022-11-20T23:23:59.906Z,48.23
2022-11-20T23:26:31.424Z,56.97
2022-11-20T23:29:01.516Z,54.37
2022-11-20T23:31:33.640Z,57.70
2022-11-20T23:34:04.080Z,66.50
2022-11-20T23:36:33.555Z,62.20
2022-11-20T23:39:02.264Z,63.97
2022-11-20T23:41:30.872Z,72.03
2022-11-20T23:43:59.897Z,71.10
2022-11-20T23:46:28.536Z,72.17
2022-11-20T23:48:59.042Z,72.83
2022-11-20T23:51:27.757Z,75.93
2022-11-20T23:53:59.393Z,70.70
2022-11-20T23:56:31.997Z,80.63
2022-11-20T23:59:00.791Z,70.50
